BVX132 KSAN-KSFO
Flight info
| Callsign | BVX132 |
|---|---|
| Flight time | N/A |
| Altitude | 38000 |
| Route | PADRZ2 IKAYE RIZIN SPLNT STOKD SERFR SERFR4 |
| Aircraft | A320/M-SDE3FGHIRWY/LB1 |
Departure
| Time | 2026-04-21 20:46 |
|---|---|
| Airport | San Diego International Airport (KSAN) |
Arrival
| Time | N/A |
|---|---|
| Airport | San Francisco International Airport (KSFO) |
| Time | Latitude | Longitude | Altitude | Speed | Heading |
|---|---|---|---|---|---|
| 2026-04-21 20:26 | 32.73338 | -117.20188 | 23 ft | 0 kts | 83° |
| 2026-04-21 20:36 | 32.73337 | -117.20196 | 23 ft | 2 kts | 83° |
| 2026-04-21 20:37 | 32.73334 | -117.20219 | 23 ft | 3 kts | 83° |
| 2026-04-21 20:37 | 32.73332 | -117.20243 | 23 ft | 3 kts | 79° |
| 2026-04-21 20:37 | 32.73328 | -117.20261 | 25 ft | 3 kts | 31° |
| 2026-04-21 20:37 | 32.73321 | -117.20264 | 23 ft | 1 kts | 346° |
| 2026-04-21 20:38 | 32.73313 | -117.20261 | 26 ft | 0 kts | 346° |
| 2026-04-21 20:39 | 32.73324 | -117.20265 | 23 ft | 5 kts | 345° |
| 2026-04-21 20:40 | 32.73365 | -117.20277 | 23 ft | 6 kts | 348° |
| 2026-04-21 20:40 | 32.73420 | -117.20269 | 23 ft | 11 kts | 14° |
| 2026-04-21 20:40 | 32.73512 | -117.20238 | 23 ft | 15 kts | 19° |
| 2026-04-21 20:40 | 32.73538 | -117.20144 | 23 ft | 13 kts | 107° |
| 2026-04-21 20:41 | 32.73514 | -117.20049 | 23 ft | 12 kts | 105° |
| 2026-04-21 20:41 | 32.73485 | -117.19928 | 25 ft | 16 kts | 106° |
| 2026-04-21 20:41 | 32.73456 | -117.19805 | 25 ft | 15 kts | 105° |
| 2026-04-21 20:41 | 32.73423 | -117.19670 | 23 ft | 19 kts | 106° |
| 2026-04-21 20:42 | 32.73385 | -117.19516 | 24 ft | 19 kts | 106° |
| 2026-04-21 20:42 | 32.73350 | -117.19369 | 23 ft | 18 kts | 106° |
| 2026-04-21 20:42 | 32.73316 | -117.19234 | 22 ft | 16 kts | 105° |
| 2026-04-21 20:42 | 32.73285 | -117.19103 | 25 ft | 19 kts | 106° |
| 2026-04-21 20:43 | 32.73246 | -117.18941 | 24 ft | 22 kts | 106° |
| 2026-04-21 20:43 | 32.73202 | -117.18759 | 26 ft | 23 kts | 106° |
| 2026-04-21 20:43 | 32.73155 | -117.18566 | 23 ft | 25 kts | 105° |
| 2026-04-21 20:43 | 32.73104 | -117.18357 | 22 ft | 27 kts | 106° |
| 2026-04-21 20:44 | 32.73051 | -117.18136 | 21 ft | 29 kts | 105° |
| 2026-04-21 20:44 | 32.72995 | -117.17903 | 24 ft | 29 kts | 106° |
| 2026-04-21 20:44 | 32.72950 | -117.17731 | 23 ft | 12 kts | 101° |
| 2026-04-21 20:44 | 32.72961 | -117.17654 | 24 ft | 8 kts | 71° |
| 2026-04-21 20:45 | 32.73024 | -117.17609 | 22 ft | 6 kts | 319° |
| 2026-04-21 20:45 | 32.73041 | -117.17667 | 23 ft | 14 kts | 287° |
| 2026-04-21 20:45 | 32.73128 | -117.18029 | 21 ft | 90 kts | 286° |
| 2026-04-21 20:45 | 32.73374 | -117.19064 | 28 ft | 165 kts | 283° |
| 2026-04-21 20:46 | 32.73728 | -117.20475 | 433 ft | 182 kts | 285° |
| 2026-04-21 20:46 | 32.74220 | -117.21903 | 1031 ft | 194 kts | 296° |
| 2026-04-21 20:46 | 32.74972 | -117.23348 | 1498 ft | 218 kts | 302° |
| 2026-04-21 20:46 | 32.75881 | -117.24920 | 2092 ft | 242 kts | 303° |
| 2026-04-21 20:47 | 32.76866 | -117.26591 | 2981 ft | 249 kts | 303° |
| 2026-04-21 20:47 | 32.77861 | -117.28283 | 3984 ft | 251 kts | 302° |
| 2026-04-21 20:47 | 32.78859 | -117.29995 | 4979 ft | 253 kts | 302° |
| 2026-04-21 20:47 | 32.79853 | -117.31712 | 5883 ft | 258 kts | 302° |
| 2026-04-21 20:48 | 32.80923 | -117.33452 | 6735 ft | 264 kts | 304° |
| 2026-04-21 20:48 | 32.82052 | -117.35202 | 7565 ft | 269 kts | 304° |
| 2026-04-21 20:48 | 32.83215 | -117.36975 | 8403 ft | 274 kts | 303° |
| 2026-04-21 20:48 | 32.84397 | -117.38775 | 9241 ft | 280 kts | 302° |
| 2026-04-21 20:49 | 32.85609 | -117.40632 | 9812 ft | 286 kts | 301° |
| 2026-04-21 20:49 | 32.86831 | -117.42510 | 10089 ft | 290 kts | 301° |
| 2026-04-21 20:49 | 32.88106 | -117.44493 | 10398 ft | 314 kts | 301° |
| 2026-04-21 20:49 | 32.89477 | -117.46641 | 10635 ft | 338 kts | 301° |